バンダラナイケ国際空港の過去48時間の天気

バンダラナイケ国際空港 (Katunayake)

現在時刻: 10/1 21:46 +0530 (10/1 16:16 UTC) 以下の時間は現地時間です。

過去48時間のMETAR気象情報
時間 風向 風速(m/s) 視程 気温(℃) 湿度(%) 気圧(hPa) 天気現象
1 20:40 南西 4 10km以上 27 84 1009
1 19:40 西南西 4 10km以上 28 79 1008
1 18:40 西南西 4 10km以上 28 84 1008
1 17:40 西南西 4 10km以上 28 79 1007
1 16:40 西南西 4 10km以上 29 79 1007
1 15:40 西南西 5 10km以上 30 75 1007
1 14:40 西南西 5 10km以上 29 74 1007
1 13:40 西南西 5 10km以上 29 74 1008
1 12:40 西南西 5 10km以上 30 75 1009
1 11:40 西 3 10km以上 29 79 1010
1 10:40 西南西 4 10km以上 29 79 1010
1 09:40 西南西 5 10km以上 29 79 1011
1 08:40 西南西 4 10km以上 29 74 1010
1 07:40 西南西 3 10km以上 28 84 1010
1 06:40 西南西 3 10km以上 27 84 1009
1 05:40 西南西 3 10km以上 27 84 1008
1 04:40 西南西 4 10km以上 27 84 1008
1 03:40 不定 1 10km以上 27 84 1007
1 02:40 南西 2 10km以上 27 84 1007
1 01:40 不定 1 10km以上 25 94 1008
1 00:40 南南西 2 10km以上 26 89 1009
30 23:40 不定 1 9000m 25 94 1009
30 22:40 不定 1 10km以上 25 94 1010
30 21:40 不定 1 10km以上 25 89 1010
30 20:40 不定 1 10km以上 25 94 1009
30 19:40 不定 1 10km以上 27 89 1009
30 18:40 南南西 5 9000m 26 89 1008
30 16:40 南西 5 8000m 28 84 1007 しゅう雨
30 15:40 西南西 5 10km以上 28 79 1007
30 14:40 西南西 4 10km以上 29 79 1007
30 13:40 西南西 4 10km以上 28 84 1008
30 12:40 南西 5 9000m 27 89 1009
30 09:40 西南西 6 8000m 29 79 1010
30 08:40 西南西 4 10km以上 28 84 1010
30 07:40 南南東 2 9000m 26 94 1009
30 06:40 不定 1 7000m 25 94 1009
30 05:40 2 10km以上 24 94 1008
30 04:40 南南西 2 10km以上 24 94 1007
30 03:40 南西 4 10km以上 27 84 1007
30 02:40 南西 4 10km以上 27 89 1007
30 01:40 西南西 4 10km以上 27 89 1008
30 00:40 2 10km以上 27 89 1009
29 23:40 2 9000m 26 94 1009
29 22:40 南南東 2 10km以上 26 94 1010
VCBI 011510Z 23008KT 9999 SCT017 27/24 Q1009 NOSIG
VCBI 011410Z 24008KT 9999 SCT017 28/24 Q1008 NOSIG
VCBI 011310Z 24007KT 9999 SCT017 28/25 Q1008 NOSIG
VCBI 011210Z 24008KT 210V270 9999 SCT017 28/24 Q1007 NOSIG
VCBI 011110Z 25007KT 220V320 9999 BKN017 29/25 Q1007 NOSIG
VCBI 011010Z 24009KT 210V290 9999 BKN017 30/25 Q1007 NOSIG
VCBI 010910Z 24009KT 220V280 9999 SCT017 29/24 Q1007 NOSIG
VCBI 010810Z 24009KT 170V300 9999 SCT017 29/24 Q1008 NOSIG
VCBI 010710Z 24009KT 200V300 9999 SCT017 30/25 Q1009 NOSIG
VCBI 010610Z 26006KT 220V310 9999 BKN017 29/25 Q1010 NOSIG
VCBI 010510Z 25008KT 220V300 9999 SCT017 FEW018TCU 29/25 Q1010 NOSIG RMK SE/SW
VCBI 010410Z 24009KT 210V270 9999 SCT017 29/25 Q1011 NOSIG
VCBI 010310Z 24007KT 9999 FEW017 29/24 Q1010 NOSIG
VCBI 010210Z 24006KT 200V290 9999 FEW017 28/25 Q1010 NOSIG
VCBI 010110Z 25005KT 220V310 9999 FEW012 SCT016 27/24 Q1009 NOSIG
VCBI 010010Z 24006KT 9999 SCT017 27/24 Q1008 NOSIG
VCBI 302310Z 24007KT 9999 SCT017 27/24 Q1008 NOSIG
VCBI 302210Z VRB02KT 9999 SCT017 FEW020TCU 27/24 Q1007 NOSIG RMK SW
VCBI 302110Z 22003KT 9999 SCT017 27/24 Q1007 NOSIG
VCBI 302010Z VRB01KT 9999 SCT017 25/24 Q1008 NOSIG
VCBI 301910Z 21003KT 160V250 9999 FEW014 BKN017 26/24 Q1009 NOSIG
VCBI 301810Z VRB01KT 9000 FEW014 BKN017 25/24 Q1009 NOSIG
VCBI 301710Z VRB01KT 9999 FEW014 BKN016 25/24 Q1010 NOSIG
VCBI 301610Z VRB01KT 9999 BKN017 25/23 Q1010 NOSIG
VCBI 301510Z VRB02KT 9999 BKN017 25/24 Q1009 NOSIG
VCBI 301410Z VRB02KT 9999 FEW014 SCT016 27/25 Q1009 NOSIG
VCBI 301310Z 21010KT 180V240 9000 FEW014 SCT016 26/24 Q1008 NOSIG
VCBI 301110Z 23010KT 8000 SHRA FEW014 SCT016 28/25 Q1007 NOSIG
VCBI 301010Z 24010KT 220V290 9999 SCT018 FEW020CB 28/24 Q1007 NOSIG RMK E
VCBI 300910Z 25008KT 220V290 9999 BKN016 FEW018CB 29/25 Q1007 NOSIG RMK NE
VCBI 300810Z 25007KT 220V310 9999 BKN016 FEW018CB 28/25 Q1008 NOSIG RMK NE
VCBI 300710Z 22009KT 9000 FEW014 BKN016 FEW018CB 27/25 Q1009 NOSIG RMK NE
VCBI 300410Z 24011KT 220V280 8000 FEW014 BKN016 29/25 Q1010 RESHRA NOSIG
VCBI 300310Z 24007KT 200V270 9999 FEW014 SCT017 28/25 Q1010 NOSIG
VCBI 300210Z 16003KT 110V210 9000 FEW014 BKN016 26/25 Q1009 NOSIG
VCBI 300110Z VRB01KT 7000 FEW014 BKN016 25/24 Q1009 NOSIG
VCBI 300010Z 17003KT 130V230 9999 FEW016 24/23 Q1008 NOSIG
VCBI 292310Z 20004KT 9999 FEW016 24/23 Q1007 NOSIG
VCBI 292210Z 23008KT 9999 SCT017 27/24 Q1007 NOSIG
VCBI 292110Z 23007KT 200V260 9999 SCT017 27/25 Q1007 NOSIG
VCBI 292010Z 24008KT 9999 BKN017 27/25 Q1008 NOSIG
VCBI 291910Z 19004KT 140V210 9999 BKN017 27/25 Q1009 NOSIG
VCBI 291810Z 18003KT 9000 SCT017 26/25 Q1009 NOSIG
VCBI 291710Z 16004KT 9999 BKN016 26/25 Q1010 NOSIG